Aviation Digital Data Service (ADDS)

Output produced by METARs form (0427 UTC 19 August 2019)
found at http://www.aviationweather.gov/metar/data/
 
Forecast for: KEYW (KEY WEST , FL, US)
Text: KEYW 182348Z 1900/1924 09008KT P6SM FEW025
Forecast period: 0000 to 0800 UTC 19 August 2019
Forecast type: FROM: standard forecast or significant change
Winds: from the E (90 degrees) at 9 MPH (8 knots; 4.1 m/s)
Visibility: 6 or more miles 10+ km)
Ceiling: at least 12,000 feet AGL
Clouds: few clouds at 2500 feet AGL
Weather: no significant weather forecast for this period
Text: FM190800 08010KT P6SM VCSH SCT025
Forecast period: 0800 UTC 19 August 2019 to 0000 UTC 20 August 2019
Forecast type: FROM: standard forecast or significant change
Winds: from the E (80 degrees) at 12 MPH (10 knots; 5.1 m/s)
Visibility: 6 or more miles 10+ km)
Ceiling: at least 12,000 feet AGL
Clouds: scattered clouds at 2500 feet AGL
Weather: VCSH  (showers in vicinity)